sensor_id;sensor_type;location;lat;lon;timestamp;P1;durP1;ratioP1;P2;durP2;ratioP2
62696;SDS011;48761;42.680;23.312;2023-07-24T00:00:30;12.85;;;8.63;;
62696;SDS011;48761;42.680;23.312;2023-07-24T00:02:56;12.63;;;8.85;;
62696;SDS011;48761;42.680;23.312;2023-07-24T00:05:22;12.63;;;7.88;;
62696;SDS011;48761;42.680;23.312;2023-07-24T00:07:48;12.70;;;8.45;;
62696;SDS011;48761;42.680;23.312;2023-07-24T00:10:13;11.85;;;8.43;;
62696;SDS011;48761;42.680;23.312;2023-07-24T00:12:39;12.00;;;8.85;;
62696;SDS011;48761;42.680;23.312;2023-07-24T00:15:05;12.98;;;8.93;;
62696;SDS011;48761;42.680;23.312;2023-07-24T00:17:32;12.30;;;8.63;;
62696;SDS011;48761;42.680;23.312;2023-07-24T00:19:58;12.38;;;8.38;;
62696;SDS011;48761;42.680;23.312;2023-07-24T00:22:24;12.43;;;8.88;;
62696;SDS011;48761;42.680;23.312;2023-07-24T00:24:50;11.23;;;8.73;;
62696;SDS011;48761;42.680;23.312;2023-07-24T00:27:16;13.27;;;8.57;;
62696;SDS011;48761;42.680;23.312;2023-07-24T00:29:41;11.27;;;7.95;;
62696;SDS011;48761;42.680;23.312;2023-07-24T00:32:07;10.93;;;8.60;;
62696;SDS011;48761;42.680;23.312;2023-07-24T00:34:34;15.43;;;9.23;;
62696;SDS011;48761;42.680;23.312;2023-07-24T00:37:00;12.85;;;8.82;;
62696;SDS011;48761;42.680;23.312;2023-07-24T00:39:25;13.35;;;9.13;;
62696;SDS011;48761;42.680;23.312;2023-07-24T00:41:51;12.10;;;8.75;;
62696;SDS011;48761;42.680;23.312;2023-07-24T00:44:18;13.30;;;9.10;;
62696;SDS011;48761;42.680;23.312;2023-07-24T00:46:44;12.07;;;8.75;;
62696;SDS011;48761;42.680;23.312;2023-07-24T00:49:10;13.38;;;9.10;;
62696;SDS011;48761;42.680;23.312;2023-07-24T00:51:36;18.60;;;12.27;;
62696;SDS011;48761;42.680;23.312;2023-07-24T00:54:02;11.60;;;8.43;;
62696;SDS011;48761;42.680;23.312;2023-07-24T00:56:30;11.27;;;8.70;;
62696;SDS011;48761;42.680;23.312;2023-07-24T00:58:58;11.32;;;8.35;;
62696;SDS011;48761;42.680;23.312;2023-07-24T01:01:25;15.50;;;8.57;;
62696;SDS011;48761;42.680;23.312;2023-07-24T01:03:51;11.30;;;8.23;;
62696;SDS011;48761;42.680;23.312;2023-07-24T01:06:18;11.10;;;8.52;;
62696;SDS011;48761;42.680;23.312;2023-07-24T01:08:44;14.13;;;9.20;;
62696;SDS011;48761;42.680;23.312;2023-07-24T01:11:19;14.35;;;9.35;;
62696;SDS011;48761;42.680;23.312;2023-07-24T01:13:56;16.45;;;10.88;;
62696;SDS011;48761;42.680;23.312;2023-07-24T01:16:30;13.77;;;9.52;;
62696;SDS011;48761;42.680;23.312;2023-07-24T01:19:01;12.93;;;9.02;;
62696;SDS011;48761;42.680;23.312;2023-07-24T01:21:44;12.43;;;8.68;;
62696;SDS011;48761;42.680;23.312;2023-07-24T01:24:28;14.85;;;9.68;;
62696;SDS011;48761;42.680;23.312;2023-07-24T01:26:58;12.85;;;8.73;;
62696;SDS011;48761;42.680;23.312;2023-07-24T01:29:24;13.02;;;8.90;;
62696;SDS011;48761;42.680;23.312;2023-07-24T01:31:50;12.52;;;8.70;;
62696;SDS011;48761;42.680;23.312;2023-07-24T01:34:16;13.45;;;9.38;;
62696;SDS011;48761;42.680;23.312;2023-07-24T01:36:42;11.48;;;8.63;;
62696;SDS011;48761;42.680;23.312;2023-07-24T01:39:08;13.07;;;9.15;;
62696;SDS011;48761;42.680;23.312;2023-07-24T01:41:36;11.73;;;8.30;;
62696;SDS011;48761;42.680;23.312;2023-07-24T01:44:02;14.45;;;9.65;;
62696;SDS011;48761;42.680;23.312;2023-07-24T01:46:27;14.18;;;8.57;;
62696;SDS011;48761;42.680;23.312;2023-07-24T01:48:53;12.95;;;8.95;;
62696;SDS011;48761;42.680;23.312;2023-07-24T01:51:19;13.82;;;9.50;;
62696;SDS011;48761;42.680;23.312;2023-07-24T01:53:45;14.27;;;9.50;;
62696;SDS011;48761;42.680;23.312;2023-07-24T01:56:11;12.93;;;8.77;;
62696;SDS011;48761;42.680;23.312;2023-07-24T01:58:37;12.93;;;9.10;;
62696;SDS011;48761;42.680;23.312;2023-07-24T02:01:03;11.82;;;8.23;;
62696;SDS011;48761;42.680;23.312;2023-07-24T02:03:29;12.10;;;8.43;;
62696;SDS011;48761;42.680;23.312;2023-07-24T02:05:55;12.98;;;8.20;;
62696;SDS011;48761;42.680;23.312;2023-07-24T02:08:21;12.82;;;8.80;;
62696;SDS011;48761;42.680;23.312;2023-07-24T02:10:50;13.40;;;8.65;;
62696;SDS011;48761;42.680;23.312;2023-07-24T02:13:16;14.82;;;9.10;;
62696;SDS011;48761;42.680;23.312;2023-07-24T02:15:42;15.68;;;9.07;;
62696;SDS011;48761;42.680;23.312;2023-07-24T02:18:08;14.45;;;8.38;;
62696;SDS011;48761;42.680;23.312;2023-07-24T02:20:34;13.10;;;9.10;;
62696;SDS011;48761;42.680;23.312;2023-07-24T02:23:00;14.60;;;9.20;;
62696;SDS011;48761;42.680;23.312;2023-07-24T02:25:25;16.92;;;8.65;;
62696;SDS011;48761;42.680;23.312;2023-07-24T02:27:51;14.23;;;8.73;;
62696;SDS011;48761;42.680;23.312;2023-07-24T02:30:17;13.07;;;9.23;;
62696;SDS011;48761;42.680;23.312;2023-07-24T02:32:43;15.50;;;10.70;;
62696;SDS011;48761;42.680;23.312;2023-07-24T02:35:09;15.48;;;10.73;;
62696;SDS011;48761;42.680;23.312;2023-07-24T02:37:35;12.52;;;9.35;;
62696;SDS011;48761;42.680;23.312;2023-07-24T02:40:01;13.20;;;8.95;;
62696;SDS011;48761;42.680;23.312;2023-07-24T02:42:27;11.25;;;8.50;;
62696;SDS011;48761;42.680;23.312;2023-07-24T02:44:53;13.68;;;9.23;;
62696;SDS011;48761;42.680;23.312;2023-07-24T02:47:18;13.65;;;9.25;;
62696;SDS011;48761;42.680;23.312;2023-07-24T02:49:44;13.68;;;9.48;;
62696;SDS011;48761;42.680;23.312;2023-07-24T02:52:10;13.98;;;9.70;;
62696;SDS011;48761;42.680;23.312;2023-07-24T02:54:36;19.67;;;9.65;;
62696;SDS011;48761;42.680;23.312;2023-07-24T02:57:02;14.18;;;9.32;;
62696;SDS011;48761;42.680;23.312;2023-07-24T02:59:29;12.50;;;9.35;;
62696;SDS011;48761;42.680;23.312;2023-07-24T03:01:55;18.23;;;9.98;;
62696;SDS011;48761;42.680;23.312;2023-07-24T03:04:21;13.93;;;9.77;;
62696;SDS011;48761;42.680;23.312;2023-07-24T03:06:47;13.57;;;9.23;;
62696;SDS011;48761;42.680;23.312;2023-07-24T03:09:14;13.98;;;9.80;;
62696;SDS011;48761;42.680;23.312;2023-07-24T03:11:40;14.10;;;10.10;;
62696;SDS011;48761;42.680;23.312;2023-07-24T03:14:05;14.95;;;9.55;;
62696;SDS011;48761;42.680;23.312;2023-07-24T03:16:31;12.75;;;8.75;;
62696;SDS011;48761;42.680;23.312;2023-07-24T03:18:57;16.17;;;10.35;;
62696;SDS011;48761;42.680;23.312;2023-07-24T03:21:23;14.88;;;9.15;;
62696;SDS011;48761;42.680;23.312;2023-07-24T03:23:49;14.40;;;10.02;;
62696;SDS011;48761;42.680;23.312;2023-07-24T03:26:15;14.65;;;9.48;;
62696;SDS011;48761;42.680;23.312;2023-07-24T03:28:41;15.15;;;9.20;;
62696;SDS011;48761;42.680;23.312;2023-07-24T03:31:07;12.43;;;8.63;;
62696;SDS011;48761;42.680;23.312;2023-07-24T03:33:33;13.88;;;9.43;;
62696;SDS011;48761;42.680;23.312;2023-07-24T03:35:59;14.48;;;9.18;;
62696;SDS011;48761;42.680;23.312;2023-07-24T03:38:24;16.50;;;10.60;;
62696;SDS011;48761;42.680;23.312;2023-07-24T03:40:50;15.40;;;9.98;;
62696;SDS011;48761;42.680;23.312;2023-07-24T03:43:16;12.18;;;9.15;;
62696;SDS011;48761;42.680;23.312;2023-07-24T03:45:42;15.07;;;9.27;;
62696;SDS011;48761;42.680;23.312;2023-07-24T03:48:08;12.65;;;9.10;;
62696;SDS011;48761;42.680;23.312;2023-07-24T03:50:34;13.73;;;9.05;;
62696;SDS011;48761;42.680;23.312;2023-07-24T03:53:00;12.35;;;9.20;;
62696;SDS011;48761;42.680;23.312;2023-07-24T03:55:26;14.55;;;9.30;;
62696;SDS011;48761;42.680;23.312;2023-07-24T03:57:52;13.82;;;9.80;;
62696;SDS011;48761;42.680;23.312;2023-07-24T04:00:18;18.10;;;10.30;;
62696;SDS011;48761;42.680;23.312;2023-07-24T04:02:44;14.40;;;10.13;;
62696;SDS011;48761;42.680;23.312;2023-07-24T04:05:10;18.48;;;10.18;;
62696;SDS011;48761;42.680;23.312;2023-07-24T04:07:36;13.68;;;9.48;;
62696;SDS011;48761;42.680;23.312;2023-07-24T04:10:02;14.45;;;9.95;;
62696;SDS011;48761;42.680;23.312;2023-07-24T04:12:28;16.75;;;10.00;;
62696;SDS011;48761;42.680;23.312;2023-07-24T04:14:54;18.88;;;9.93;;
62696;SDS011;48761;42.680;23.312;2023-07-24T04:17:20;16.80;;;10.20;;
62696;SDS011;48761;42.680;23.312;2023-07-24T04:19:46;18.30;;;10.52;;
62696;SDS011;48761;42.680;23.312;2023-07-24T04:22:12;15.27;;;11.05;;
62696;SDS011;48761;42.680;23.312;2023-07-24T04:24:38;18.63;;;11.52;;
62696;SDS011;48761;42.680;23.312;2023-07-24T04:27:04;16.38;;;10.38;;
62696;SDS011;48761;42.680;23.312;2023-07-24T04:29:30;20.02;;;10.73;;
62696;SDS011;48761;42.680;23.312;2023-07-24T04:31:56;18.92;;;11.45;;
62696;SDS011;48761;42.680;23.312;2023-07-24T04:34:28;19.55;;;11.23;;
62696;SDS011;48761;42.680;23.312;2023-07-24T04:36:54;15.85;;;11.07;;
62696;SDS011;48761;42.680;23.312;2023-07-24T04:39:20;20.67;;;11.57;;
62696;SDS011;48761;42.680;23.312;2023-07-24T04:41:46;17.98;;;12.07;;
62696;SDS011;48761;42.680;23.312;2023-07-24T04:44:12;24.52;;;13.95;;
62696;SDS011;48761;42.680;23.312;2023-07-24T04:46:37;19.75;;;12.25;;
62696;SDS011;48761;42.680;23.312;2023-07-24T04:49:03;27.00;;;17.38;;
62696;SDS011;48761;42.680;23.312;2023-07-24T04:51:29;22.73;;;12.30;;
62696;SDS011;48761;42.680;23.312;2023-07-24T04:53:55;18.33;;;12.02;;
62696;SDS011;48761;42.680;23.312;2023-07-24T04:56:21;23.05;;;13.00;;
62696;SDS011;48761;42.680;23.312;2023-07-24T04:58:47;21.45;;;13.00;;
62696;SDS011;48761;42.680;23.312;2023-07-24T05:01:13;20.55;;;11.65;;
62696;SDS011;48761;42.680;23.312;2023-07-24T05:03:39;20.42;;;12.73;;
62696;SDS011;48761;42.680;23.312;2023-07-24T05:06:05;18.15;;;11.48;;
62696;SDS011;48761;42.680;23.312;2023-07-24T05:08:30;16.13;;;11.35;;
62696;SDS011;48761;42.680;23.312;2023-07-24T05:10:57;19.88;;;11.75;;
62696;SDS011;48761;42.680;23.312;2023-07-24T05:13:23;20.50;;;12.15;;
62696;SDS011;48761;42.680;23.312;2023-07-24T05:15:50;15.75;;;11.60;;
62696;SDS011;48761;42.680;23.312;2023-07-24T05:18:16;17.70;;;11.27;;
62696;SDS011;48761;42.680;23.312;2023-07-24T05:20:45;18.65;;;11.60;;
62696;SDS011;48761;42.680;23.312;2023-07-24T05:23:12;17.58;;;12.35;;
62696;SDS011;48761;42.680;23.312;2023-07-24T05:25:39;20.50;;;12.02;;
62696;SDS011;48761;42.680;23.312;2023-07-24T05:28:05;17.45;;;10.57;;
62696;SDS011;48761;42.680;23.312;2023-07-24T05:30:31;17.80;;;11.38;;
62696;SDS011;48761;42.680;23.312;2023-07-24T05:32:58;17.65;;;11.00;;
62696;SDS011;48761;42.680;23.312;2023-07-24T05:35:24;18.80;;;11.13;;
62696;SDS011;48761;42.680;23.312;2023-07-24T05:37:50;19.25;;;11.23;;
62696;SDS011;48761;42.680;23.312;2023-07-24T05:40:16;14.95;;;10.52;;
62696;SDS011;48761;42.680;23.312;2023-07-24T05:42:41;18.17;;;11.43;;
62696;SDS011;48761;42.680;23.312;2023-07-24T05:45:07;15.10;;;10.70;;
62696;SDS011;48761;42.680;23.312;2023-07-24T05:47:34;18.98;;;11.50;;
62696;SDS011;48761;42.680;23.312;2023-07-24T05:50:00;21.27;;;12.05;;
62696;SDS011;48761;42.680;23.312;2023-07-24T05:52:25;17.92;;;11.13;;
62696;SDS011;48761;42.680;23.312;2023-07-24T05:54:51;18.73;;;12.23;;
62696;SDS011;48761;42.680;23.312;2023-07-24T05:57:17;19.35;;;12.45;;
62696;SDS011;48761;42.680;23.312;2023-07-24T05:59:43;19.58;;;13.23;;
62696;SDS011;48761;42.680;23.312;2023-07-24T06:02:09;21.33;;;12.45;;
62696;SDS011;48761;42.680;23.312;2023-07-24T06:04:36;22.88;;;12.55;;
62696;SDS011;48761;42.680;23.312;2023-07-24T06:07:02;21.63;;;12.70;;
62696;SDS011;48761;42.680;23.312;2023-07-24T06:09:30;16.88;;;11.68;;
62696;SDS011;48761;42.680;23.312;2023-07-24T06:11:56;22.40;;;12.70;;
62696;SDS011;48761;42.680;23.312;2023-07-24T06:14:21;18.38;;;12.55;;
62696;SDS011;48761;42.680;23.312;2023-07-24T06:16:47;19.40;;;12.32;;
62696;SDS011;48761;42.680;23.312;2023-07-24T06:19:13;18.98;;;12.50;;
62696;SDS011;48761;42.680;23.312;2023-07-24T06:21:39;17.35;;;11.07;;
62696;SDS011;48761;42.680;23.312;2023-07-24T06:24:05;21.67;;;11.77;;
62696;SDS011;48761;42.680;23.312;2023-07-24T06:26:31;19.35;;;12.98;;
62696;SDS011;48761;42.680;23.312;2023-07-24T06:28:57;18.60;;;11.38;;
62696;SDS011;48761;42.680;23.312;2023-07-24T06:31:23;15.15;;;10.73;;
62696;SDS011;48761;42.680;23.312;2023-07-24T06:33:49;20.25;;;11.02;;
62696;SDS011;48761;42.680;23.312;2023-07-24T06:36:15;15.20;;;10.85;;
62696;SDS011;48761;42.680;23.312;2023-07-24T06:38:40;19.13;;;10.75;;
62696;SDS011;48761;42.680;23.312;2023-07-24T06:41:06;16.60;;;10.93;;
62696;SDS011;48761;42.680;23.312;2023-07-24T06:43:32;17.75;;;9.73;;
62696;SDS011;48761;42.680;23.312;2023-07-24T06:45:58;14.50;;;9.80;;
62696;SDS011;48761;42.680;23.312;2023-07-24T06:48:24;17.35;;;10.82;;
62696;SDS011;48761;42.680;23.312;2023-07-24T06:50:50;15.18;;;10.35;;
62696;SDS011;48761;42.680;23.312;2023-07-24T06:53:16;16.15;;;9.55;;
62696;SDS011;48761;42.680;23.312;2023-07-24T06:55:42;15.75;;;9.88;;
62696;SDS011;48761;42.680;23.312;2023-07-24T06:58:08;13.35;;;9.65;;
62696;SDS011;48761;42.680;23.312;2023-07-24T07:00:33;13.00;;;9.27;;
62696;SDS011;48761;42.680;23.312;2023-07-24T07:02:59;15.52;;;9.63;;
62696;SDS011;48761;42.680;23.312;2023-07-24T07:05:25;17.30;;;11.15;;
62696;SDS011;48761;42.680;23.312;2023-07-24T07:07:51;14.48;;;9.70;;
62696;SDS011;48761;42.680;23.312;2023-07-24T07:10:17;15.18;;;9.50;;
62696;SDS011;48761;42.680;23.312;2023-07-24T07:12:43;13.82;;;9.02;;
62696;SDS011;48761;42.680;23.312;2023-07-24T07:15:09;23.33;;;10.55;;
62696;SDS011;48761;42.680;23.312;2023-07-24T07:17:35;19.55;;;9.65;;
62696;SDS011;48761;42.680;23.312;2023-07-24T07:20:01;14.77;;;10.32;;
62696;SDS011;48761;42.680;23.312;2023-07-24T07:22:27;16.73;;;9.55;;
62696;SDS011;48761;42.680;23.312;2023-07-24T07:24:52;14.48;;;9.20;;
62696;SDS011;48761;42.680;23.312;2023-07-24T07:27:18;13.70;;;8.93;;
62696;SDS011;48761;42.680;23.312;2023-07-24T07:29:44;13.93;;;8.98;;
62696;SDS011;48761;42.680;23.312;2023-07-24T07:32:10;14.13;;;9.20;;
62696;SDS011;48761;42.680;23.312;2023-07-24T07:34:36;15.02;;;9.10;;
62696;SDS011;48761;42.680;23.312;2023-07-24T07:37:02;14.70;;;9.50;;
62696;SDS011;48761;42.680;23.312;2023-07-24T07:39:28;15.25;;;9.57;;
62696;SDS011;48761;42.680;23.312;2023-07-24T07:41:54;15.27;;;9.32;;
62696;SDS011;48761;42.680;23.312;2023-07-24T07:44:20;16.05;;;10.13;;
62696;SDS011;48761;42.680;23.312;2023-07-24T07:46:46;14.88;;;9.23;;
62696;SDS011;48761;42.680;23.312;2023-07-24T07:49:12;13.65;;;9.13;;
62696;SDS011;48761;42.680;23.312;2023-07-24T07:51:38;30.10;;;12.15;;
62696;SDS011;48761;42.680;23.312;2023-07-24T07:54:04;24.20;;;10.68;;
62696;SDS011;48761;42.680;23.312;2023-07-24T07:56:30;31.45;;;11.80;;
62696;SDS011;48761;42.680;23.312;2023-07-24T07:58:57;15.95;;;9.85;;
62696;SDS011;48761;42.680;23.312;2023-07-24T08:01:23;18.38;;;10.02;;
62696;SDS011;48761;42.680;23.312;2023-07-24T08:03:49;14.18;;;10.25;;
62696;SDS011;48761;42.680;23.312;2023-07-24T08:06:15;18.27;;;9.60;;
62696;SDS011;48761;42.680;23.312;2023-07-24T08:08:41;14.50;;;9.60;;
62696;SDS011;48761;42.680;23.312;2023-07-24T08:11:07;14.77;;;9.65;;
62696;SDS011;48761;42.680;23.312;2023-07-24T08:13:33;15.13;;;10.63;;
62696;SDS011;48761;42.680;23.312;2023-07-24T08:16:00;14.60;;;10.43;;
62696;SDS011;48761;42.680;23.312;2023-07-24T08:18:26;17.92;;;9.90;;
62696;SDS011;48761;42.680;23.312;2023-07-24T08:20:52;17.70;;;10.70;;
62696;SDS011;48761;42.680;23.312;2023-07-24T08:23:18;14.82;;;9.82;;
62696;SDS011;48761;42.680;23.312;2023-07-24T08:25:50;19.33;;;10.45;;
62696;SDS011;48761;42.680;23.312;2023-07-24T08:28:19;34.33;;;13.52;;
62696;SDS011;48761;42.680;23.312;2023-07-24T08:30:46;23.27;;;11.27;;
62696;SDS011;48761;42.680;23.312;2023-07-24T08:33:12;22.50;;;10.93;;
62696;SDS011;48761;42.680;23.312;2023-07-24T08:35:38;17.50;;;10.55;;
62696;SDS011;48761;42.680;23.312;2023-07-24T08:38:04;18.08;;;11.82;;
62696;SDS011;48761;42.680;23.312;2023-07-24T08:40:30;17.42;;;10.98;;
62696;SDS011;48761;42.680;23.312;2023-07-24T08:42:56;17.58;;;11.07;;
62696;SDS011;48761;42.680;23.312;2023-07-24T08:45:22;16.02;;;11.25;;
62696;SDS011;48761;42.680;23.312;2023-07-24T08:47:49;18.55;;;11.85;;
62696;SDS011;48761;42.680;23.312;2023-07-24T08:50:16;21.15;;;11.70;;
62696;SDS011;48761;42.680;23.312;2023-07-24T08:52:43;17.55;;;10.73;;
62696;SDS011;48761;42.680;23.312;2023-07-24T08:55:09;17.23;;;11.38;;
62696;SDS011;48761;42.680;23.312;2023-07-24T08:57:35;17.98;;;10.73;;
62696;SDS011;48761;42.680;23.312;2023-07-24T09:00:01;22.38;;;11.93;;
62696;SDS011;48761;42.680;23.312;2023-07-24T09:02:33;20.90;;;11.70;;
62696;SDS011;48761;42.680;23.312;2023-07-24T09:05:00;23.50;;;12.50;;
62696;SDS011;48761;42.680;23.312;2023-07-24T09:07:27;17.85;;;10.55;;
62696;SDS011;48761;42.680;23.312;2023-07-24T09:09:52;17.77;;;11.27;;
62696;SDS011;48761;42.680;23.312;2023-07-24T09:12:18;20.48;;;11.82;;
62696;SDS011;48761;42.680;23.312;2023-07-24T09:14:44;20.35;;;12.05;;
62696;SDS011;48761;42.680;23.312;2023-07-24T09:17:10;18.77;;;12.02;;
62696;SDS011;48761;42.680;23.312;2023-07-24T09:19:37;20.58;;;11.10;;
62696;SDS011;48761;42.680;23.312;2023-07-24T09:22:07;18.95;;;11.55;;
62696;SDS011;48761;42.680;23.312;2023-07-24T09:24:50;24.23;;;15.38;;
62696;SDS011;48761;42.680;23.312;2023-07-24T09:27:16;17.95;;;11.05;;
62696;SDS011;48761;42.680;23.312;2023-07-24T09:29:44;22.95;;;11.98;;
62696;SDS011;48761;42.680;23.312;2023-07-24T09:32:26;24.98;;;12.23;;
62696;SDS011;48761;42.680;23.312;2023-07-24T09:34:57;19.17;;;11.07;;
62696;SDS011;48761;42.680;23.312;2023-07-24T09:39:55;18.90;;;12.05;;
62696;SDS011;48761;42.680;23.312;2023-07-24T09:42:31;21.08;;;13.15;;
62696;SDS011;48761;42.680;23.312;2023-07-24T09:44:57;28.83;;;18.92;;
62696;SDS011;48761;42.680;23.312;2023-07-24T09:47:24;28.20;;;13.70;;
62696;SDS011;48761;42.680;23.312;2023-07-24T09:49:51;26.70;;;15.00;;
62696;SDS011;48761;42.680;23.312;2023-07-24T09:52:18;25.15;;;15.40;;
62696;SDS011;48761;42.680;23.312;2023-07-24T09:57:23;20.55;;;12.15;;
62696;SDS011;48761;42.680;23.312;2023-07-24T09:59:49;19.67;;;11.48;;
62696;SDS011;48761;42.680;23.312;2023-07-24T10:02:17;20.02;;;11.80;;
62696;SDS011;48761;42.680;23.312;2023-07-24T10:04:43;22.55;;;11.40;;
62696;SDS011;48761;42.680;23.312;2023-07-24T10:07:10;20.70;;;11.70;;
62696;SDS011;48761;42.680;23.312;2023-07-24T10:09:37;21.83;;;11.70;;
62696;SDS011;48761;42.680;23.312;2023-07-24T10:12:04;20.13;;;11.25;;
62696;SDS011;48761;42.680;23.312;2023-07-24T10:14:30;23.08;;;12.40;;
62696;SDS011;48761;42.680;23.312;2023-07-24T10:16:57;22.45;;;13.32;;
62696;SDS011;48761;42.680;23.312;2023-07-24T10:19:23;27.58;;;12.60;;
62696;SDS011;48761;42.680;23.312;2023-07-24T10:21:49;27.90;;;11.82;;
62696;SDS011;48761;42.680;23.312;2023-07-24T10:24:16;51.30;;;13.75;;
62696;SDS011;48761;42.680;23.312;2023-07-24T10:26:43;26.17;;;12.80;;
62696;SDS011;48761;42.680;23.312;2023-07-24T10:29:09;22.92;;;13.05;;
62696;SDS011;48761;42.680;23.312;2023-07-24T10:31:35;23.92;;;12.57;;
62696;SDS011;48761;42.680;23.312;2023-07-24T10:34:05;30.45;;;12.85;;
62696;SDS011;48761;42.680;23.312;2023-07-24T10:36:35;26.98;;;10.95;;
62696;SDS011;48761;42.680;23.312;2023-07-24T10:39:02;27.98;;;12.52;;
62696;SDS011;48761;42.680;23.312;2023-07-24T10:41:35;21.55;;;11.05;;
62696;SDS011;48761;42.680;23.312;2023-07-24T10:44:01;19.85;;;11.43;;
62696;SDS011;48761;42.680;23.312;2023-07-24T10:46:40;24.88;;;14.75;;
62696;SDS011;48761;42.680;23.312;2023-07-24T10:49:07;26.98;;;15.07;;
62696;SDS011;48761;42.680;23.312;2023-07-24T10:51:34;23.38;;;11.38;;
62696;SDS011;48761;42.680;23.312;2023-07-24T10:54:01;20.08;;;8.88;;
62696;SDS011;48761;42.680;23.312;2023-07-24T10:56:28;24.17;;;9.10;;
62696;SDS011;48761;42.680;23.312;2023-07-24T10:58:55;18.95;;;8.50;;
62696;SDS011;48761;42.680;23.312;2023-07-24T11:01:20;22.63;;;10.55;;
62696;SDS011;48761;42.680;23.312;2023-07-24T11:03:48;17.75;;;10.80;;
62696;SDS011;48761;42.680;23.312;2023-07-24T11:06:16;16.58;;;8.45;;
62696;SDS011;48761;42.680;23.312;2023-07-24T11:08:51;17.15;;;10.52;;
62696;SDS011;48761;42.680;23.312;2023-07-24T11:11:18;17.48;;;8.80;;
62696;SDS011;48761;42.680;23.312;2023-07-24T11:13:44;17.35;;;8.25;;
62696;SDS011;48761;42.680;23.312;2023-07-24T11:16:11;16.08;;;7.38;;
62696;SDS011;48761;42.680;23.312;2023-07-24T11:18:45;18.95;;;8.77;;
62696;SDS011;48761;42.680;23.312;2023-07-24T11:21:13;18.23;;;9.20;;
62696;SDS011;48761;42.680;23.312;2023-07-24T11:23:49;19.67;;;9.25;;
62696;SDS011;48761;42.680;23.312;2023-07-24T11:26:21;18.33;;;9.10;;
62696;SDS011;48761;42.680;23.312;2023-07-24T11:28:49;17.52;;;8.38;;
62696;SDS011;48761;42.680;23.312;2023-07-24T11:31:16;17.80;;;8.57;;
62696;SDS011;48761;42.680;23.312;2023-07-24T11:33:43;17.70;;;9.02;;
62696;SDS011;48761;42.680;23.312;2023-07-24T11:36:09;19.52;;;8.57;;
62696;SDS011;48761;42.680;23.312;2023-07-24T11:38:36;15.18;;;8.93;;
62696;SDS011;48761;42.680;23.312;2023-07-24T11:41:02;20.15;;;9.60;;
62696;SDS011;48761;42.680;23.312;2023-07-24T11:43:29;15.77;;;9.18;;
62696;SDS011;48761;42.680;23.312;2023-07-24T11:45:55;20.48;;;8.90;;
62696;SDS011;48761;42.680;23.312;2023-07-24T11:48:21;15.82;;;8.85;;
62696;SDS011;48761;42.680;23.312;2023-07-24T11:50:56;20.33;;;9.25;;
62696;SDS011;48761;42.680;23.312;2023-07-24T11:53:28;15.73;;;9.02;;
62696;SDS011;48761;42.680;23.312;2023-07-24T11:55:56;20.50;;;9.73;;
62696;SDS011;48761;42.680;23.312;2023-07-24T11:58:25;19.50;;;11.57;;
62696;SDS011;48761;42.680;23.312;2023-07-24T12:00:52;22.95;;;9.82;;
62696;SDS011;48761;42.680;23.312;2023-07-24T12:03:22;22.40;;;10.27;;
62696;SDS011;48761;42.680;23.312;2023-07-24T12:05:54;24.90;;;11.20;;
62696;SDS011;48761;42.680;23.312;2023-07-24T12:09:03;24.15;;;10.77;;
62696;SDS011;48761;42.680;23.312;2023-07-24T12:11:30;15.00;;;9.70;;
62696;SDS011;48761;42.680;23.312;2023-07-24T12:13:57;17.77;;;8.90;;
62696;SDS011;48761;42.680;23.312;2023-07-24T12:16:24;15.70;;;8.15;;
62696;SDS011;48761;42.680;23.312;2023-07-24T12:18:51;18.70;;;9.82;;
62696;SDS011;48761;42.680;23.312;2023-07-24T12:21:17;17.73;;;10.00;;
62696;SDS011;48761;42.680;23.312;2023-07-24T12:23:43;17.75;;;9.93;;
62696;SDS011;48761;42.680;23.312;2023-07-24T12:26:13;16.27;;;9.77;;
62696;SDS011;48761;42.680;23.312;2023-07-24T12:28:39;14.07;;;8.90;;
62696;SDS011;48761;42.680;23.312;2023-07-24T12:31:08;15.95;;;8.38;;
62696;SDS011;48761;42.680;23.312;2023-07-24T12:33:34;16.10;;;8.60;;
62696;SDS011;48761;42.680;23.312;2023-07-24T12:36:01;21.10;;;9.63;;
62696;SDS011;48761;42.680;23.312;2023-07-24T12:38:27;15.80;;;9.43;;
62696;SDS011;48761;42.680;23.312;2023-07-24T12:40:53;16.75;;;9.07;;
62696;SDS011;48761;42.680;23.312;2023-07-24T12:43:19;18.80;;;8.52;;
62696;SDS011;48761;42.680;23.312;2023-07-24T12:45:47;17.70;;;10.02;;
62696;SDS011;48761;42.680;23.312;2023-07-24T12:48:13;21.02;;;8.55;;
62696;SDS011;48761;42.680;23.312;2023-07-24T12:50:40;14.65;;;8.38;;
62696;SDS011;48761;42.680;23.312;2023-07-24T12:53:06;18.65;;;9.00;;
62696;SDS011;48761;42.680;23.312;2023-07-24T12:55:31;21.10;;;9.02;;
62696;SDS011;48761;42.680;23.312;2023-07-24T12:57:57;14.13;;;9.00;;
62696;SDS011;48761;42.680;23.312;2023-07-24T13:00:23;16.45;;;9.70;;
62696;SDS011;48761;42.680;23.312;2023-07-24T13:02:49;16.33;;;8.70;;
62696;SDS011;48761;42.680;23.312;2023-07-24T13:05:15;14.93;;;8.60;;
62696;SDS011;48761;42.680;23.312;2023-07-24T13:07:41;24.20;;;9.75;;
62696;SDS011;48761;42.680;23.312;2023-07-24T13:10:08;14.90;;;8.88;;
62696;SDS011;48761;42.680;23.312;2023-07-24T13:12:34;16.60;;;8.52;;
62696;SDS011;48761;42.680;23.312;2023-07-24T13:15:00;14.07;;;8.85;;
62696;SDS011;48761;42.680;23.312;2023-07-24T13:17:27;17.98;;;8.68;;
62696;SDS011;48761;42.680;23.312;2023-07-24T13:19:53;18.77;;;9.02;;
62696;SDS011;48761;42.680;23.312;2023-07-24T13:22:19;19.60;;;8.88;;
62696;SDS011;48761;42.680;23.312;2023-07-24T13:24:45;16.00;;;9.30;;
62696;SDS011;48761;42.680;23.312;2023-07-24T13:27:11;15.45;;;8.75;;
62696;SDS011;48761;42.680;23.312;2023-07-24T13:29:37;16.25;;;9.63;;
62696;SDS011;48761;42.680;23.312;2023-07-24T13:32:03;16.95;;;8.80;;
62696;SDS011;48761;42.680;23.312;2023-07-24T13:34:29;18.42;;;9.50;;
62696;SDS011;48761;42.680;23.312;2023-07-24T13:36:55;11.82;;;8.32;;
62696;SDS011;48761;42.680;23.312;2023-07-24T13:39:21;16.45;;;9.27;;
62696;SDS011;48761;42.680;23.312;2023-07-24T13:41:47;15.55;;;9.48;;
62696;SDS011;48761;42.680;23.312;2023-07-24T13:44:13;18.60;;;9.27;;
62696;SDS011;48761;42.680;23.312;2023-07-24T13:46:39;18.42;;;9.38;;
62696;SDS011;48761;42.680;23.312;2023-07-24T13:49:05;15.00;;;8.90;;
62696;SDS011;48761;42.680;23.312;2023-07-24T13:51:31;16.77;;;9.30;;
62696;SDS011;48761;42.680;23.312;2023-07-24T13:53:57;20.67;;;8.95;;
62696;SDS011;48761;42.680;23.312;2023-07-24T13:56:23;16.80;;;9.98;;
62696;SDS011;48761;42.680;23.312;2023-07-24T13:58:49;16.55;;;9.85;;
62696;SDS011;48761;42.680;23.312;2023-07-24T14:01:15;14.63;;;10.13;;
62696;SDS011;48761;42.680;23.312;2023-07-24T14:03:40;15.52;;;10.40;;
62696;SDS011;48761;42.680;23.312;2023-07-24T14:06:06;13.65;;;9.13;;
62696;SDS011;48761;42.680;23.312;2023-07-24T14:08:32;19.77;;;10.38;;
62696;SDS011;48761;42.680;23.312;2023-07-24T14:10:58;15.35;;;9.32;;
62696;SDS011;48761;42.680;23.312;2023-07-24T14:13:24;18.25;;;9.43;;
62696;SDS011;48761;42.680;23.312;2023-07-24T14:15:50;16.23;;;10.48;;
62696;SDS011;48761;42.680;23.312;2023-07-24T14:18:16;17.33;;;9.55;;